DAL4522 KGJT-KCNY
Flight info
| Callsign | DAL4522 |
|---|---|
| Flight time | 0h 24m |
| Altitude | 14000 |
| Route | MONMT3 JNC V8 ARCHH |
| Aircraft | B737/M-SDE2E3FGHIRWXY/LB1 |
Departure
| Time | 2026-05-07 10:59 |
|---|---|
| Airport | Grand Junction Regional Airport (KGJT) |
Arrival
| Time | 2026-05-07 11:24 |
|---|---|
| Airport | Canyonlands Regional Airport (KCNY) |
| Time | Latitude | Longitude | Altitude | Speed | Heading |
|---|---|---|---|---|---|
| 2026-05-07 10:41 | 39.12308 | -108.52839 | 4853 ft | 0 kts | 215° |
| 2026-05-07 10:52 | 39.12311 | -108.52836 | 4853 ft | 3 kts | 215° |
| 2026-05-07 10:53 | 39.12332 | -108.52815 | 4858 ft | 4 kts | 224° |
| 2026-05-07 10:53 | 39.12348 | -108.52788 | 4855 ft | 4 kts | 252° |
| 2026-05-07 10:53 | 39.12348 | -108.52764 | 4858 ft | 0 kts | 305° |
| 2026-05-07 10:55 | 39.12364 | -108.52793 | 4854 ft | 12 kts | 306° |
| 2026-05-07 10:55 | 39.12434 | -108.52796 | 4854 ft | 11 kts | 11° |
| 2026-05-07 10:55 | 39.12489 | -108.52853 | 4852 ft | 11 kts | 307° |
| 2026-05-07 10:55 | 39.12523 | -108.52905 | 4851 ft | 12 kts | 306° |
| 2026-05-07 10:56 | 39.12576 | -108.52999 | 4851 ft | 14 kts | 305° |
| 2026-05-07 10:56 | 39.12636 | -108.53108 | 4848 ft | 16 kts | 305° |
| 2026-05-07 10:56 | 39.12699 | -108.53225 | 4847 ft | 16 kts | 304° |
| 2026-05-07 10:56 | 39.12767 | -108.53350 | 4847 ft | 18 kts | 306° |
| 2026-05-07 10:57 | 39.12843 | -108.53486 | 4847 ft | 20 kts | 306° |
| 2026-05-07 10:57 | 39.12923 | -108.53633 | 4843 ft | 20 kts | 304° |
| 2026-05-07 10:57 | 39.13002 | -108.53777 | 4841 ft | 19 kts | 305° |
| 2026-05-07 10:57 | 39.13083 | -108.53926 | 4838 ft | 21 kts | 305° |
| 2026-05-07 10:58 | 39.13171 | -108.54084 | 4846 ft | 22 kts | 305° |
| 2026-05-07 10:58 | 39.13259 | -108.54246 | 4834 ft | 23 kts | 305° |
| 2026-05-07 10:58 | 39.13350 | -108.54412 | 4833 ft | 22 kts | 305° |
| 2026-05-07 10:58 | 39.13475 | -108.54440 | 4836 ft | 21 kts | 53° |
| 2026-05-07 10:59 | 39.13415 | -108.54279 | 4833 ft | 46 kts | 125° |
| 2026-05-07 10:59 | 39.13075 | -108.53660 | 4841 ft | 121 kts | 125° |
| 2026-05-07 10:59 | 39.12472 | -108.52573 | 4970 ft | 172 kts | 124° |
| 2026-05-07 10:59 | 39.11733 | -108.51206 | 5557 ft | 198 kts | 123° |
| 2026-05-07 11:00 | 39.10912 | -108.49661 | 6136 ft | 219 kts | 123° |
| 2026-05-07 11:00 | 39.10020 | -108.47979 | 6824 ft | 233 kts | 127° |
| 2026-05-07 11:00 | 39.08678 | -108.46647 | 7219 ft | 261 kts | 163° |
| 2026-05-07 11:00 | 39.06857 | -108.46622 | 8080 ft | 270 kts | 198° |
| 2026-05-07 11:01 | 39.05284 | -108.47926 | 9016 ft | 275 kts | 231° |
| 2026-05-07 11:01 | 39.04527 | -108.49768 | 9851 ft | 277 kts | 255° |
| 2026-05-07 11:01 | 39.04302 | -108.51946 | 10691 ft | 279 kts | 272° |
| 2026-05-07 11:01 | 39.04411 | -108.54453 | 11560 ft | 287 kts | 276° |
| 2026-05-07 11:02 | 39.04601 | -108.57127 | 11860 ft | 316 kts | 277° |
| 2026-05-07 11:02 | 39.04819 | -108.60065 | 12092 ft | 344 kts | 277° |
| 2026-05-07 11:02 | 39.05035 | -108.63202 | 12629 ft | 358 kts | 277° |
| 2026-05-07 11:02 | 39.05238 | -108.66379 | 13426 ft | 363 kts | 277° |
| 2026-05-07 11:03 | 39.05433 | -108.69615 | 13857 ft | 363 kts | 277° |
| 2026-05-07 11:03 | 39.05629 | -108.72932 | 13968 ft | 372 kts | 277° |
| 2026-05-07 11:03 | 39.05796 | -108.76284 | 13966 ft | 379 kts | 273° |
| 2026-05-07 11:03 | 39.05575 | -108.79619 | 13952 ft | 380 kts | 262° |
| 2026-05-07 11:04 | 39.04886 | -108.82950 | 13947 ft | 382 kts | 252° |
| 2026-05-07 11:04 | 39.03885 | -108.86069 | 13942 ft | 383 kts | 249° |
| 2026-05-07 11:04 | 39.02819 | -108.89211 | 13932 ft | 383 kts | 249° |
| 2026-05-07 11:04 | 39.01754 | -108.92347 | 13922 ft | 383 kts | 249° |
| 2026-05-07 11:05 | 39.00697 | -108.95496 | 13913 ft | 383 kts | 249° |
| 2026-05-07 11:05 | 38.99652 | -108.98651 | 13914 ft | 384 kts | 249° |
| 2026-05-07 11:05 | 38.98613 | -109.01809 | 13910 ft | 384 kts | 250° |
| 2026-05-07 11:05 | 38.97572 | -109.04973 | 13909 ft | 385 kts | 249° |
| 2026-05-07 11:06 | 38.96528 | -109.08141 | 13905 ft | 385 kts | 249° |
| 2026-05-07 11:06 | 38.95485 | -109.11306 | 13912 ft | 385 kts | 249° |
| 2026-05-07 11:06 | 38.94441 | -109.14466 | 13901 ft | 384 kts | 250° |
| 2026-05-07 11:06 | 38.93398 | -109.17625 | 13921 ft | 384 kts | 249° |
| 2026-05-07 11:07 | 38.92356 | -109.20777 | 13913 ft | 384 kts | 249° |
| 2026-05-07 11:07 | 38.91311 | -109.23934 | 13915 ft | 384 kts | 249° |
| 2026-05-07 11:07 | 38.90265 | -109.27091 | 13925 ft | 384 kts | 249° |
| 2026-05-07 11:07 | 38.89219 | -109.30245 | 13911 ft | 384 kts | 249° |
| 2026-05-07 11:08 | 38.88171 | -109.33402 | 13910 ft | 384 kts | 249° |
| 2026-05-07 11:08 | 38.87269 | -109.36114 | 13923 ft | 384 kts | 249° |
| 2026-05-07 11:08 | 38.86221 | -109.39265 | 13931 ft | 385 kts | 249° |
| 2026-05-07 11:08 | 38.85171 | -109.42419 | 13930 ft | 385 kts | 249° |
| 2026-05-07 11:09 | 38.84127 | -109.45545 | 13925 ft | 377 kts | 249° |
| 2026-05-07 11:09 | 38.83104 | -109.48611 | 13931 ft | 372 kts | 249° |
| 2026-05-07 11:09 | 38.82088 | -109.51656 | 13951 ft | 372 kts | 249° |
| 2026-05-07 11:09 | 38.81066 | -109.54715 | 13958 ft | 373 kts | 249° |
| 2026-05-07 11:10 | 38.80037 | -109.57778 | 13704 ft | 374 kts | 248° |
| 2026-05-07 11:10 | 38.78895 | -109.60760 | 13126 ft | 376 kts | 244° |
| 2026-05-07 11:10 | 38.77630 | -109.63669 | 12531 ft | 371 kts | 242° |
| 2026-05-07 11:10 | 38.76344 | -109.66519 | 11904 ft | 368 kts | 242° |
| 2026-05-07 11:11 | 38.75081 | -109.69319 | 11620 ft | 354 kts | 242° |
| 2026-05-07 11:11 | 38.73884 | -109.71993 | 11458 ft | 339 kts | 243° |
| 2026-05-07 11:11 | 38.72760 | -109.74530 | 11307 ft | 325 kts | 243° |
| 2026-05-07 11:11 | 38.71673 | -109.77000 | 11177 ft | 312 kts | 243° |
| 2026-05-07 11:12 | 38.70634 | -109.79369 | 11037 ft | 298 kts | 243° |
| 2026-05-07 11:12 | 38.69645 | -109.81626 | 10779 ft | 285 kts | 243° |
| 2026-05-07 11:12 | 38.68689 | -109.83812 | 10454 ft | 279 kts | 243° |
| 2026-05-07 11:12 | 38.67743 | -109.85975 | 10127 ft | 278 kts | 243° |
| 2026-05-07 11:13 | 38.66800 | -109.88129 | 9760 ft | 277 kts | 243° |
| 2026-05-07 11:13 | 38.65860 | -109.90276 | 9402 ft | 275 kts | 243° |
| 2026-05-07 11:13 | 38.64935 | -109.92368 | 9278 ft | 266 kts | 239° |
| 2026-05-07 11:13 | 38.63635 | -109.93990 | 9166 ft | 258 kts | 215° |
| 2026-05-07 11:14 | 38.62169 | -109.95236 | 9078 ft | 249 kts | 215° |
| 2026-05-07 11:14 | 38.60736 | -109.96444 | 8996 ft | 245 kts | 215° |
| 2026-05-07 11:14 | 38.59310 | -109.97643 | 8920 ft | 245 kts | 214° |
| 2026-05-07 11:14 | 38.57884 | -109.98842 | 8831 ft | 245 kts | 214° |
| 2026-05-07 11:15 | 38.56463 | -110.00041 | 8768 ft | 245 kts | 214° |
| 2026-05-07 11:15 | 38.55041 | -110.01242 | 8698 ft | 246 kts | 214° |
| 2026-05-07 11:15 | 38.53613 | -110.02451 | 8610 ft | 246 kts | 214° |
| 2026-05-07 11:15 | 38.52224 | -110.03718 | 8508 ft | 245 kts | 228° |
| 2026-05-07 11:16 | 38.51493 | -110.05611 | 8410 ft | 238 kts | 267° |
| 2026-05-07 11:16 | 38.51829 | -110.07608 | 8338 ft | 232 kts | 305° |
| 2026-05-07 11:16 | 38.52994 | -110.08970 | 8345 ft | 228 kts | 334° |
| 2026-05-07 11:16 | 38.54542 | -110.09438 | 8210 ft | 235 kts | 4° |
| 2026-05-07 11:17 | 38.56048 | -110.08766 | 8103 ft | 226 kts | 37° |
| 2026-05-07 11:17 | 38.57103 | -110.07387 | 8079 ft | 210 kts | 51° |
| 2026-05-07 11:17 | 38.57956 | -110.05929 | 8087 ft | 203 kts | 52° |
| 2026-05-07 11:17 | 38.58785 | -110.04493 | 8077 ft | 199 kts | 52° |
| 2026-05-07 11:18 | 38.59608 | -110.03082 | 8070 ft | 196 kts | 52° |
| 2026-05-07 11:18 | 38.60427 | -110.01687 | 8088 ft | 197 kts | 52° |
| 2026-05-07 11:18 | 38.61255 | -110.00281 | 8090 ft | 198 kts | 52° |
| 2026-05-07 11:18 | 38.62084 | -109.98874 | 8095 ft | 198 kts | 52° |
| 2026-05-07 11:19 | 38.62882 | -109.97413 | 7979 ft | 202 kts | 55° |
| 2026-05-07 11:19 | 38.63663 | -109.95939 | 7850 ft | 196 kts | 55° |
| 2026-05-07 11:19 | 38.64406 | -109.94537 | 7727 ft | 185 kts | 55° |
| 2026-05-07 11:19 | 38.65120 | -109.93194 | 7618 ft | 182 kts | 55° |
| 2026-05-07 11:20 | 38.65830 | -109.91861 | 7549 ft | 181 kts | 55° |
| 2026-05-07 11:20 | 38.66528 | -109.90550 | 7420 ft | 174 kts | 56° |
| 2026-05-07 11:20 | 38.67186 | -109.89315 | 7353 ft | 162 kts | 56° |
| 2026-05-07 11:20 | 38.67817 | -109.88142 | 7138 ft | 159 kts | 55° |
| 2026-05-07 11:21 | 38.68446 | -109.87017 | 6964 ft | 153 kts | 55° |
| 2026-05-07 11:21 | 38.69069 | -109.85909 | 6731 ft | 153 kts | 55° |
| 2026-05-07 11:21 | 38.69688 | -109.84810 | 6488 ft | 151 kts | 56° |
| 2026-05-07 11:21 | 38.70299 | -109.83724 | 6249 ft | 150 kts | 56° |
| 2026-05-07 11:22 | 38.70878 | -109.82620 | 6031 ft | 148 kts | 60° |
| 2026-05-07 11:22 | 38.71354 | -109.81476 | 5867 ft | 146 kts | 64° |
| 2026-05-07 11:22 | 38.71815 | -109.80309 | 5646 ft | 148 kts | 64° |
| 2026-05-07 11:22 | 38.72312 | -109.79129 | 5332 ft | 152 kts | 56° |
| 2026-05-07 11:23 | 38.73010 | -109.78135 | 5031 ft | 149 kts | 41° |
| 2026-05-07 11:23 | 38.73791 | -109.77301 | 4790 ft | 145 kts | 39° |
| 2026-05-07 11:23 | 38.74566 | -109.76480 | 4609 ft | 144 kts | 40° |
| 2026-05-07 11:23 | 38.75303 | -109.75692 | 4565 ft | 112 kts | 40° |
| 2026-05-07 11:24 | 38.75741 | -109.75225 | 4570 ft | 54 kts | 40° |
| 2026-05-07 11:24 | 38.75964 | -109.74989 | 4568 ft | 26 kts | 39° |
| 2026-05-07 11:24 | 38.76068 | -109.74877 | 4569 ft | 16 kts | 39° |
| 2026-05-07 11:24 | 38.76126 | -109.74804 | 4569 ft | 6 kts | 77° |
| 2026-05-07 11:25 | 38.76111 | -109.74768 | 4570 ft | 4 kts | 129° |
| 2026-05-07 11:25 | 38.76091 | -109.74737 | 4566 ft | 4 kts | 129° |
| 2026-05-07 11:25 | 38.76074 | -109.74703 | 4566 ft | 5 kts | 104° |
| 2026-05-07 11:25 | 38.76079 | -109.74642 | 4566 ft | 8 kts | 80° |
| 2026-05-07 11:26 | 38.76056 | -109.74596 | 4573 ft | 6 kts | 166° |
| 2026-05-07 11:26 | 38.76039 | -109.74591 | 4566 ft | 0 kts | 168° |